createdAt,value
2017-08-25T00:00:39.914Z,96.30
2017-08-25T00:03:07.435Z,96.60
2017-08-25T00:05:34.947Z,96.80
2017-08-25T00:08:02.450Z,97.10
2017-08-25T00:10:29.989Z,97.60
2017-08-25T00:12:57.517Z,97.70
2017-08-25T00:15:25.019Z,97.10
2017-08-25T00:17:52.530Z,96.90
2017-08-25T00:20:20.072Z,96.70
2017-08-25T00:22:47.574Z,97.30
2017-08-25T00:25:15.077Z,97.70
2017-08-25T00:27:42.602Z,97.40
2017-08-25T00:30:10.110Z,97.80
2017-08-25T00:32:37.611Z,98.00
2017-08-25T00:35:05.138Z,97.70
2017-08-25T00:37:32.651Z,97.70
2017-08-25T00:40:00.150Z,97.60
2017-08-25T00:42:27.677Z,97.60
2017-08-25T00:44:55.177Z,97.70
2017-08-25T00:47:22.682Z,97.70
2017-08-25T00:49:50.210Z,97.60
2017-08-25T00:52:17.726Z,97.80
2017-08-25T00:54:45.251Z,97.80
2017-08-25T00:57:12.778Z,98.00
2017-08-25T00:59:40.281Z,98.40
2017-08-25T01:02:07.782Z,98.40
2017-08-25T01:04:35.314Z,98.80
2017-08-25T01:07:02.817Z,98.80
2017-08-25T01:09:30.370Z,99.00
2017-08-25T01:11:57.914Z,99.10
2017-08-25T01:14:25.413Z,98.60
2017-08-25T01:16:52.913Z,98.30
2017-08-25T01:19:20.441Z,98.50
2017-08-25T01:21:47.942Z,98.50
2017-08-25T01:24:15.449Z,98.50
2017-08-25T01:26:42.981Z,98.50
2017-08-25T01:29:10.493Z,98.50
2017-08-25T01:31:37.993Z,98.20
2017-08-25T01:34:05.521Z,98.30
2017-08-25T01:36:33.069Z,98.20
2017-08-25T01:39:00.646Z,98.40
2017-08-25T01:41:28.182Z,98.40
2017-08-25T01:43:55.689Z,98.20
2017-08-25T01:46:23.194Z,98.20
2017-08-25T01:48:50.721Z,98.50
2017-08-25T01:51:18.226Z,98.60
2017-08-25T01:53:45.730Z,98.90
2017-08-25T01:56:13.263Z,99.20
2017-08-25T01:58:40.769Z,99.50
2017-08-25T02:01:08.265Z,99.60
2017-08-25T02:03:35.791Z,98.40
2017-08-25T02:06:03.294Z,97.50
2017-08-25T02:08:30.797Z,97.20
2017-08-25T02:10:58.334Z,97.50
2017-08-25T02:13:25.834Z,97.90
2017-08-25T02:15:53.333Z,98.50
2017-08-25T02:18:20.866Z,98.50
2017-08-25T02:20:48.366Z,98.50
2017-08-25T02:23:15.870Z,98.10
2017-08-25T02:25:43.394Z,98.10
2017-08-25T02:28:10.898Z,98.10
2017-08-25T02:30:38.405Z,98.20
2017-08-25T02:33:05.938Z,98.40
2017-08-25T02:35:33.442Z,98.70
2017-08-25T02:38:00.942Z,98.70
2017-08-25T02:40:28.806Z,98.90
2017-08-25T02:42:56.314Z,99.10
2017-08-25T02:45:23.820Z,99.30
2017-08-25T02:47:51.354Z,99.30
2017-08-25T02:50:18.879Z,99.50
2017-08-25T02:52:46.378Z,99.40
2017-08-25T02:55:13.910Z,99.60
2017-08-25T02:57:41.410Z,99.70
2017-08-25T03:00:08.910Z,99.80
2017-08-25T03:02:36.438Z,99.50
2017-08-25T03:05:03.957Z,99.90
2017-08-25T03:07:31.458Z,98.60
2017-08-25T03:09:58.997Z,98.40
2017-08-25T03:12:26.501Z,99.00
2017-08-25T03:14:54.002Z,99.30
2017-08-25T03:17:21.545Z,99.70
2017-08-25T03:19:49.051Z,99.90
2017-08-25T03:22:16.579Z,99.90
2017-08-25T03:24:44.110Z,99.90
2017-08-25T03:27:11.622Z,99.90
2017-08-25T03:29:39.125Z,99.90
2017-08-25T03:32:06.650Z,99.90
2017-08-25T03:34:34.149Z,99.90
2017-08-25T03:37:01.659Z,99.90
2017-08-25T03:39:29.186Z,99.90
2017-08-25T03:41:56.713Z,99.90
2017-08-25T03:44:24.214Z,99.90
2017-08-25T03:46:51.750Z,99.90
2017-08-25T03:49:19.266Z,99.90
2017-08-25T03:51:46.778Z,99.90
2017-08-25T03:54:14.302Z,99.90
2017-08-25T03:56:41.805Z,99.90
2017-08-25T03:59:09.363Z,99.90
2017-08-25T04:01:36.889Z,99.90
2017-08-25T04:04:04.390Z,99.90
2017-08-25T04:06:31.899Z,99.90
2017-08-25T04:08:59.430Z,99.90
2017-08-25T04:11:26.940Z,99.90
2017-08-25T04:13:54.442Z,99.90
2017-08-25T04:16:21.970Z,99.90
2017-08-25T04:18:49.470Z,99.90
2017-08-25T04:21:16.969Z,99.90
2017-08-25T04:23:44.502Z,99.90
2017-08-25T04:26:12.011Z,99.90
2017-08-25T04:28:39.517Z,99.90
2017-08-25T04:31:07.042Z,99.90
2017-08-25T04:33:34.546Z,99.90
2017-08-25T04:36:02.057Z,99.90
2017-08-25T04:38:29.586Z,99.90
2017-08-25T04:40:57.090Z,99.90
2017-08-25T04:43:24.598Z,99.90
2017-08-25T04:45:52.138Z,99.90
2017-08-25T04:48:19.645Z,99.90
2017-08-25T04:50:47.156Z,99.80
2017-08-25T04:53:14.686Z,99.90
2017-08-25T04:55:42.217Z,99.90
2017-08-25T04:58:09.721Z,99.70
2017-08-25T05:00:37.249Z,99.60
2017-08-25T05:03:04.754Z,99.40
2017-08-25T05:05:32.258Z,99.20
2017-08-25T05:07:59.810Z,99.00
2017-08-25T05:10:27.317Z,98.80
2017-08-25T05:12:55.217Z,98.50
2017-08-25T05:15:22.757Z,98.50
2017-08-25T05:17:50.261Z,98.00
2017-08-25T05:20:17.769Z,98.10
2017-08-25T05:22:45.690Z,98.00
2017-08-25T05:25:13.193Z,98.00
2017-08-25T05:27:40.702Z,97.80
2017-08-25T05:30:08.228Z,97.50
2017-08-25T05:32:35.728Z,97.40
2017-08-25T05:35:03.237Z,97.70
2017-08-25T05:37:30.835Z,97.30
2017-08-25T05:39:58.337Z,97.20
2017-08-25T05:42:25.833Z,97.30
2017-08-25T05:44:53.358Z,97.00
2017-08-25T05:47:20.857Z,96.90
2017-08-25T05:49:48.357Z,96.70
2017-08-25T05:52:15.882Z,96.50
2017-08-25T05:54:43.405Z,96.10
2017-08-25T05:57:10.898Z,95.90
2017-08-25T05:59:38.425Z,95.80
2017-08-25T06:02:05.927Z,95.90
2017-08-25T06:04:33.430Z,95.50
2017-08-25T06:07:00.987Z,95.70
2017-08-25T06:09:28.485Z,95.00
2017-08-25T06:11:55.985Z,95.10
2017-08-25T06:14:23.510Z,94.70
2017-08-25T06:16:51.022Z,94.20
2017-08-25T06:19:18.527Z,93.60
2017-08-25T06:21:46.050Z,93.40
2017-08-25T06:24:13.553Z,93.30
2017-08-25T06:26:41.053Z,93.00
2017-08-25T06:29:08.581Z,92.70
2017-08-25T06:31:36.087Z,92.70
2017-08-25T06:34:03.598Z,92.40
2017-08-25T06:36:31.123Z,92.20
2017-08-25T06:38:58.626Z,91.60
2017-08-25T06:41:26.125Z,91.50
2017-08-25T06:43:53.667Z,91.00
2017-08-25T06:46:21.169Z,91.00
2017-08-25T06:48:48.671Z,91.00
2017-08-25T06:51:16.197Z,90.20
2017-08-25T06:53:43.710Z,90.30
2017-08-25T06:56:11.209Z,89.50
2017-08-25T06:58:38.745Z,89.20
2017-08-25T07:01:06.246Z,89.30
2017-08-25T07:03:33.754Z,88.70
2017-08-25T07:06:01.278Z,89.40
2017-08-25T07:08:28.794Z,88.80
2017-08-25T07:10:56.302Z,88.30
2017-08-25T07:13:23.845Z,89.10
2017-08-25T07:15:51.354Z,88.80
2017-08-25T07:18:18.857Z,88.20
2017-08-25T07:20:46.382Z,88.00
2017-08-25T07:23:13.898Z,88.10
2017-08-25T07:25:41.454Z,88.50
2017-08-25T07:28:08.986Z,87.70
2017-08-25T07:30:36.491Z,88.20
2017-08-25T07:33:03.990Z,88.00
2017-08-25T07:35:31.522Z,87.70
2017-08-25T07:37:59.021Z,88.00
2017-08-25T07:40:26.522Z,87.50
2017-08-25T07:42:54.057Z,87.30
2017-08-25T07:45:21.561Z,87.00
2017-08-25T07:47:49.065Z,87.10
2017-08-25T07:50:16.590Z,87.40
2017-08-25T07:52:44.090Z,86.70
2017-08-25T07:55:11.597Z,86.60
2017-08-25T07:57:39.122Z,85.80
2017-08-25T08:00:06.629Z,85.30
2017-08-25T08:02:34.177Z,85.50
2017-08-25T08:05:01.988Z,84.60
2017-08-25T08:07:29.489Z,85.10
2017-08-25T08:09:56.994Z,84.20
2017-08-25T08:12:24.530Z,84.70
2017-08-25T08:14:52.071Z,84.50
2017-08-25T08:17:19.581Z,83.70
2017-08-25T08:19:47.090Z,83.60
2017-08-25T08:22:14.641Z,83.30
2017-08-25T08:24:42.189Z,83.30
2017-08-25T08:27:10.193Z,84.20
2017-08-25T08:29:37.735Z,82.10
2017-08-25T08:32:05.242Z,82.40
2017-08-25T08:34:32.746Z,80.70
2017-08-25T08:37:00.274Z,82.10
2017-08-25T08:39:27.774Z,82.00
2017-08-25T08:41:55.274Z,81.20
2017-08-25T08:44:22.802Z,80.90
2017-08-25T08:46:50.353Z,79.90
2017-08-25T08:49:17.866Z,79.80
2017-08-25T08:51:45.709Z,80.20
2017-08-25T08:54:13.210Z,79.50
2017-08-25T08:56:40.701Z,79.30
2017-08-25T08:59:08.226Z,79.90
2017-08-25T09:01:35.726Z,79.40
2017-08-25T09:04:03.230Z,78.00
2017-08-25T09:06:35.697Z,78.40
2017-08-25T09:09:03.198Z,77.70
2017-08-25T09:11:30.701Z,78.20
2017-08-25T09:13:58.234Z,77.20
2017-08-25T09:16:25.730Z,77.30
2017-08-25T09:18:53.249Z,77.50
2017-08-25T09:21:20.769Z,77.30
2017-08-25T09:23:48.290Z,78.40
2017-08-25T09:26:15.860Z,77.20
2017-08-25T09:28:43.362Z,77.50
2017-08-25T09:31:10.867Z,76.50
2017-08-25T09:33:38.398Z,74.90
2017-08-25T09:36:05.944Z,75.80
2017-08-25T09:38:33.463Z,75.00
2017-08-25T09:41:00.993Z,75.10
2017-08-25T09:43:28.490Z,74.90
2017-08-25T09:45:55.989Z,74.10
2017-08-25T09:48:23.513Z,72.60
2017-08-25T09:50:51.022Z,72.70
2017-08-25T09:53:18.550Z,72.10
2017-08-25T09:55:46.075Z,71.30
2017-08-25T09:58:13.682Z,71.60
2017-08-25T10:00:41.296Z,71.80
2017-08-25T10:03:08.861Z,70.30
2017-08-25T10:05:36.362Z,72.30
2017-08-25T10:08:03.881Z,71.10
2017-08-25T10:10:31.415Z,71.20
2017-08-25T10:12:58.914Z,71.30
2017-08-25T10:15:26.417Z,70.00
2017-08-25T10:17:53.945Z,70.60
2017-08-25T10:20:21.445Z,71.30
2017-08-25T10:22:48.954Z,70.60
2017-08-25T10:25:16.482Z,69.60
2017-08-25T10:27:43.989Z,69.70
2017-08-25T10:30:11.500Z,70.00
2017-08-25T10:32:39.037Z,71.10
2017-08-25T10:35:18.432Z,70.20
2017-08-25T10:37:57.702Z,69.70
2017-08-25T10:40:37.118Z,69.30
2017-08-25T10:43:16.358Z,69.90
2017-08-25T10:45:43.858Z,68.80
2017-08-25T10:48:11.362Z,68.80
2017-08-25T10:50:39.152Z,69.80
2017-08-25T10:53:06.767Z,70.30
2017-08-25T10:55:34.270Z,70.00
2017-08-25T10:58:01.798Z,67.70
2017-08-25T11:00:29.308Z,69.00
2017-08-25T11:02:56.811Z,68.40
2017-08-25T11:05:24.341Z,69.00
2017-08-25T11:07:51.851Z,66.70
2017-08-25T11:10:19.353Z,69.00
2017-08-25T11:12:46.874Z,68.10
2017-08-25T11:15:14.382Z,68.80
2017-08-25T11:17:41.882Z,68.30
2017-08-25T11:20:09.406Z,67.30
2017-08-25T11:22:36.910Z,67.10
2017-08-25T11:25:04.413Z,68.00
2017-08-25T11:27:31.934Z,68.40
2017-08-25T11:29:59.444Z,68.50
2017-08-25T11:32:26.949Z,68.60
2017-08-25T11:34:54.477Z,69.70
2017-08-25T11:37:21.977Z,69.20
2017-08-25T11:39:49.482Z,67.60
2017-08-25T11:42:17.402Z,70.60
2017-08-25T11:44:44.905Z,70.60
2017-08-25T11:47:12.805Z,68.30
2017-08-25T11:49:40.336Z,68.30
2017-08-25T11:52:07.893Z,69.10
2017-08-25T11:54:35.405Z,68.20
2017-08-25T11:57:02.926Z,67.90
2017-08-25T11:59:30.454Z,67.90
2017-08-25T12:01:57.965Z,67.80
2017-08-25T12:04:25.501Z,67.50
2017-08-25T12:06:53.010Z,66.70
2017-08-25T12:09:20.510Z,67.70
2017-08-25T12:11:48.038Z,68.00
2017-08-25T12:14:15.542Z,67.40
2017-08-25T12:16:43.046Z,68.30
2017-08-25T12:19:10.590Z,67.60
2017-08-25T12:21:38.094Z,68.80
2017-08-25T12:24:05.593Z,67.80
2017-08-25T12:26:33.121Z,67.70
2017-08-25T12:29:00.622Z,67.10
2017-08-25T12:31:28.126Z,67.30
2017-08-25T12:33:55.650Z,67.30
2017-08-25T12:36:23.158Z,67.30
2017-08-25T12:38:50.890Z,67.80
2017-08-25T12:41:18.397Z,66.80
2017-08-25T12:43:45.917Z,67.20
2017-08-25T12:46:13.433Z,68.00
2017-08-25T12:48:40.938Z,67.10
2017-08-25T12:51:08.466Z,66.50
2017-08-25T12:53:35.986Z,66.40
2017-08-25T12:56:03.494Z,66.30
2017-08-25T12:58:31.026Z,66.90
2017-08-25T13:00:58.525Z,66.70
2017-08-25T13:03:26.029Z,68.30
2017-08-25T13:05:53.556Z,68.70
2017-08-25T13:08:21.105Z,67.20
2017-08-25T13:10:48.629Z,67.60
2017-08-25T13:13:16.166Z,68.50
2017-08-25T13:15:43.673Z,65.90
2017-08-25T13:18:11.206Z,66.10
2017-08-25T13:20:38.720Z,65.60
2017-08-25T13:23:06.235Z,65.50
2017-08-25T13:25:33.766Z,65.70
2017-08-25T13:28:01.298Z,65.40
2017-08-25T13:30:28.805Z,66.80
2017-08-25T13:32:56.314Z,66.10
2017-08-25T13:35:23.841Z,66.80
2017-08-25T13:37:51.346Z,65.60
2017-08-25T13:40:18.881Z,66.50
2017-08-25T13:42:46.406Z,65.60
2017-08-25T13:45:13.913Z,66.70
2017-08-25T13:47:41.446Z,64.40
2017-08-25T13:50:08.986Z,65.00
2017-08-25T13:52:36.517Z,63.50
2017-08-25T13:55:04.046Z,63.80
2017-08-25T13:57:31.570Z,65.10
2017-08-25T13:59:59.089Z,64.70
2017-08-25T14:02:26.619Z,64.20
2017-08-25T14:04:54.142Z,63.80
2017-08-25T14:07:21.666Z,64.40
2017-08-25T14:09:49.169Z,63.90
2017-08-25T14:12:16.704Z,64.80
2017-08-25T14:14:44.206Z,64.70
2017-08-25T14:17:11.734Z,62.80
2017-08-25T14:19:39.262Z,62.70
2017-08-25T14:22:06.785Z,61.90
2017-08-25T14:24:34.314Z,61.30
2017-08-25T14:27:01.813Z,61.10
2017-08-25T14:29:29.326Z,61.60
2017-08-25T14:31:56.869Z,62.20
2017-08-25T14:34:24.370Z,63.00
2017-08-25T14:36:52.171Z,61.30
2017-08-25T14:39:20.055Z,62.10
2017-08-25T14:41:47.763Z,62.90
2017-08-25T14:44:15.263Z,61.20
2017-08-25T14:46:42.806Z,62.40
2017-08-25T14:49:10.313Z,61.80
2017-08-25T14:51:37.819Z,61.60
2017-08-25T14:54:05.351Z,60.90
2017-08-25T14:56:32.855Z,60.70
2017-08-25T14:59:00.386Z,61.90
2017-08-25T15:01:27.916Z,61.90
2017-08-25T15:03:55.450Z,63.60
2017-08-25T15:06:22.982Z,63.40
2017-08-25T15:08:50.485Z,64.00
2017-08-25T15:11:17.981Z,62.50
2017-08-25T15:13:45.513Z,63.20
2017-08-25T15:16:13.018Z,63.30
2017-08-25T15:18:40.546Z,63.60
2017-08-25T15:21:08.081Z,65.40
2017-08-25T15:23:35.609Z,62.70
2017-08-25T15:26:03.136Z,63.30
2017-08-25T15:28:30.666Z,63.60
2017-08-25T15:30:58.198Z,62.60
2017-08-25T15:33:25.701Z,63.20
2017-08-25T15:35:53.233Z,63.40
2017-08-25T15:38:20.735Z,62.30
2017-08-25T15:40:48.244Z,60.90
2017-08-25T15:43:15.773Z,60.80
2017-08-25T15:45:43.273Z,60.70
2017-08-25T15:48:10.778Z,60.50
2017-08-25T15:50:38.302Z,59.50
2017-08-25T15:53:06.043Z,59.80
2017-08-25T15:55:33.547Z,60.20
2017-08-25T15:58:01.178Z,59.90
2017-08-25T16:00:28.685Z,60.70
2017-08-25T16:02:56.190Z,61.40
2017-08-25T16:05:23.718Z,63.10
2017-08-25T16:07:51.221Z,62.80
2017-08-25T16:10:18.721Z,62.70
2017-08-25T16:12:46.250Z,62.90
2017-08-25T16:15:13.761Z,63.70
2017-08-25T16:17:41.274Z,64.30
2017-08-25T16:20:08.802Z,63.60
2017-08-25T16:22:36.302Z,62.50
2017-08-25T16:25:03.806Z,62.40
2017-08-25T16:27:31.338Z,62.40
2017-08-25T16:29:58.846Z,63.20
2017-08-25T16:32:26.358Z,63.10
2017-08-25T16:34:53.891Z,62.80
2017-08-25T16:37:21.405Z,62.70
2017-08-25T16:39:48.910Z,63.30
2017-08-25T16:42:16.448Z,63.60
2017-08-25T16:44:43.957Z,63.90
2017-08-25T16:47:12.292Z,64.30
2017-08-25T16:49:39.826Z,63.80
2017-08-25T16:52:07.338Z,64.40
2017-08-25T16:54:34.849Z,64.80
2017-08-25T16:57:02.386Z,65.90
2017-08-25T16:59:29.894Z,66.20
2017-08-25T17:01:57.402Z,66.50
2017-08-25T17:04:24.933Z,67.10
2017-08-25T17:06:52.446Z,67.50
2017-08-25T17:09:20.062Z,67.60
2017-08-25T17:11:47.608Z,68.10
2017-08-25T17:14:15.114Z,68.90
2017-08-25T17:16:42.634Z,68.40
2017-08-25T17:19:10.166Z,68.60
2017-08-25T17:21:37.824Z,69.10
2017-08-25T17:24:05.338Z,69.40
2017-08-25T17:26:32.838Z,69.70
2017-08-25T17:29:00.365Z,70.60
2017-08-25T17:31:28.742Z,70.90
2017-08-25T17:33:56.246Z,71.20
2017-08-25T17:36:23.754Z,71.70
2017-08-25T17:38:51.286Z,71.90
2017-08-25T17:41:18.790Z,73.10
2017-08-25T17:43:46.304Z,72.90
2017-08-25T17:46:13.830Z,73.10
2017-08-25T17:48:41.338Z,73.70
2017-08-25T17:51:08.841Z,73.50
2017-08-25T17:53:36.370Z,73.20
2017-08-25T17:56:03.868Z,74.10
2017-08-25T17:58:31.468Z,74.60
2017-08-25T18:00:58.994Z,75.30
2017-08-25T18:03:26.498Z,76.00
2017-08-25T18:05:54.006Z,76.20
2017-08-25T18:08:21.540Z,76.00
2017-08-25T18:10:49.042Z,76.80
2017-08-25T18:13:16.551Z,76.90
2017-08-25T18:15:44.077Z,77.30
2017-08-25T18:18:11.578Z,77.50
2017-08-25T18:20:39.082Z,78.20
2017-08-25T18:23:06.610Z,78.60
2017-08-25T18:25:34.114Z,79.70
2017-08-25T18:28:01.674Z,80.10
2017-08-25T18:30:29.198Z,80.50
2017-08-25T18:32:56.719Z,80.40
2017-08-25T18:35:24.253Z,80.70
2017-08-25T18:37:51.774Z,81.00
2017-08-25T18:40:19.277Z,81.20
2017-08-25T18:42:47.059Z,81.10
2017-08-25T18:45:14.578Z,81.40
2017-08-25T18:47:42.098Z,81.40
2017-08-25T18:50:09.734Z,82.00
2017-08-25T18:52:37.233Z,82.20
2017-08-25T18:55:04.738Z,82.50
2017-08-25T18:57:32.303Z,82.50
2017-08-25T18:59:59.833Z,82.50
2017-08-25T19:02:27.369Z,82.80
2017-08-25T19:04:54.893Z,82.70
2017-08-25T19:07:22.394Z,83.20
2017-08-25T19:09:49.934Z,83.20
2017-08-25T19:12:17.874Z,83.80
2017-08-25T19:14:45.394Z,82.70
2017-08-25T19:17:12.894Z,83.40
2017-08-25T19:19:40.426Z,83.60
2017-08-25T19:22:07.946Z,83.60
2017-08-25T19:24:35.476Z,83.60
2017-08-25T19:27:03.014Z,84.00
2017-08-25T19:29:30.533Z,84.30
2017-08-25T19:31:58.046Z,85.20
2017-08-25T19:34:25.573Z,85.40
2017-08-25T19:36:53.088Z,85.10
2017-08-25T19:39:20.589Z,85.60
2017-08-25T19:41:48.117Z,85.40
2017-08-25T19:44:15.613Z,85.10
2017-08-25T19:46:43.130Z,84.60
2017-08-25T19:49:10.660Z,84.50
2017-08-25T19:51:38.169Z,84.80
2017-08-25T19:54:05.665Z,84.40
2017-08-25T19:56:33.196Z,84.30
2017-08-25T19:59:00.717Z,85.30
2017-08-25T20:01:28.214Z,85.60
2017-08-25T20:03:55.740Z,85.50
2017-08-25T20:06:23.242Z,85.50
2017-08-25T20:08:50.941Z,85.80
2017-08-25T20:11:18.470Z,86.00
2017-08-25T20:13:45.966Z,86.30
2017-08-25T20:16:13.470Z,86.90
2017-08-25T20:18:40.998Z,87.30
2017-08-25T20:21:08.506Z,87.80
2017-08-25T20:23:36.010Z,87.30
2017-08-25T20:26:03.533Z,87.10
2017-08-25T20:28:31.033Z,87.30
2017-08-25T20:30:58.538Z,88.00
2017-08-25T20:33:26.070Z,88.10
2017-08-25T20:35:53.589Z,88.40
2017-08-25T20:38:21.090Z,88.20
2017-08-25T20:40:48.626Z,88.90
2017-08-25T20:43:16.130Z,89.50
2017-08-25T20:45:43.635Z,89.80
2017-08-25T20:48:11.171Z,89.90
2017-08-25T20:50:38.673Z,90.00
2017-08-25T20:53:06.202Z,89.70
2017-08-25T20:55:33.737Z,89.50
2017-08-25T20:58:01.242Z,89.80
2017-08-25T21:00:28.749Z,90.30
2017-08-25T21:02:56.274Z,90.30
2017-08-25T21:05:23.774Z,89.80
2017-08-25T21:07:51.278Z,90.30
2017-08-25T21:10:18.819Z,90.60
2017-08-25T21:12:46.326Z,89.80
2017-08-25T21:15:13.830Z,89.80
2017-08-25T21:17:41.355Z,89.90
2017-08-25T21:20:08.858Z,89.20
2017-08-25T21:22:36.377Z,89.50
2017-08-25T21:25:03.902Z,89.30
2017-08-25T21:27:31.402Z,89.80
2017-08-25T21:29:58.902Z,89.50
2017-08-25T21:32:26.425Z,89.70
2017-08-25T21:34:53.922Z,90.10
2017-08-25T21:37:21.436Z,90.30
2017-08-25T21:39:48.962Z,90.70
2017-08-25T21:42:16.465Z,90.50
2017-08-25T21:44:43.978Z,90.60
2017-08-25T21:47:11.514Z,90.70
2017-08-25T21:49:39.031Z,90.50
2017-08-25T21:52:06.541Z,90.60
2017-08-25T21:54:34.066Z,91.00
2017-08-25T21:57:01.572Z,91.20
2017-08-25T21:59:29.078Z,91.20
2017-08-25T22:01:56.605Z,91.10
2017-08-25T22:04:24.106Z,90.90
2017-08-25T22:06:51.613Z,91.00
2017-08-25T22:09:19.138Z,91.10
2017-08-25T22:11:46.641Z,91.40
2017-08-25T22:14:14.146Z,91.20
2017-08-25T22:16:41.677Z,91.40
2017-08-25T22:19:09.179Z,92.10
2017-08-25T22:21:36.678Z,91.80
2017-08-25T22:24:05.275Z,91.80
2017-08-25T22:26:32.778Z,91.90
2017-08-25T22:29:00.278Z,92.00
2017-08-25T22:31:27.809Z,92.20
2017-08-25T22:33:55.317Z,92.40
2017-08-25T22:36:22.846Z,92.30
2017-08-25T22:38:50.390Z,92.80
2017-08-25T22:41:17.894Z,92.70
2017-08-25T22:43:45.394Z,92.70
2017-08-25T22:46:12.926Z,92.90
2017-08-25T22:48:40.430Z,93.00
2017-08-25T22:51:07.960Z,93.10
2017-08-25T22:53:35.502Z,93.30
2017-08-25T22:56:03.006Z,93.50
2017-08-25T22:58:30.507Z,94.20
2017-08-25T23:00:58.054Z,94.40
2017-08-25T23:03:25.573Z,94.10
2017-08-25T23:05:53.073Z,93.90
2017-08-25T23:08:21.207Z,93.90
2017-08-25T23:10:48.790Z,93.90
2017-08-25T23:13:16.290Z,94.20
2017-08-25T23:15:44.751Z,94.40
2017-08-25T23:18:12.273Z,94.70
2017-08-25T23:20:39.790Z,94.90
2017-08-25T23:23:07.318Z,95.10
2017-08-25T23:25:35.030Z,95.00
2017-08-25T23:28:02.541Z,95.30
2017-08-25T23:30:30.073Z,95.90
2017-08-25T23:32:57.574Z,96.30
2017-08-25T23:35:25.074Z,96.50
2017-08-25T23:37:52.610Z,96.80
2017-08-25T23:40:20.109Z,97.40
2017-08-25T23:42:47.651Z,97.80
2017-08-25T23:45:15.182Z,98.30
2017-08-25T23:47:42.686Z,98.70
2017-08-25T23:50:10.210Z,98.70
2017-08-25T23:52:38.677Z,98.70
2017-08-25T23:55:06.198Z,98.90
2017-08-25T23:57:33.718Z,98.80
